Tuscarora Heights, Pennsylvania
Current Conditions -  °F | °C
As of 3:53 PM on Tuesday 21 Oct 2014 (Local Time) from KHGR Reporting Station
Light Rain Light Rain  
Wind Chill: 56°   Ceiling: 6000
Heat Index: 56°   Visibility: 4mi
Dew Point: 51°   Wind: 8mph
Humidity: 84%   Direction: 260°W
Pressure: 29.84"   Gusts: NA
Location:  39.9814°N, 77.8809°W
Report Text: KHGR 211953Z 26007KT 4SM -RA FEW043 SCT050 OVC060 13/11 A2984 RMK AO2 RAB21 SLP116 P0004 T01330106
Loading
Personal Weather Stations






























Interactive Weather Map
Tropical Storm Tracking
New forecast layout! Learn more

10-Day Weather Forecast

Advertisements
Track Severe Weather on mobile